Time;durP1;ratioP1;P1;durP2;ratioP2;P2;SDS_P1;SDS_P2;PMS_P1;PMS_P2;Temp;Humidity;BMP_temperature;BMP_pressure;BME280_temperature;BME280_humidity;BME280_pressure;Samples;Min_cycle;Max_cycle;Signal;HPM_P1;HPM_P2
2023/05/12 00:01:15;;;;;;;17.67;8.43;;;12.90;99.90;;;;;;5051831;28;20307;-77
2023/05/12 00:03:41;;;;;;;18.33;8.37;;;12.80;99.90;;;;;;5049536;28;20309;-75
2023/05/12 00:06:09;;;;;;;15.67;8.10;;;12.80;99.90;;;;;;5049424;28;20209;-76
2023/05/12 00:08:35;;;;;;;16.30;8.60;;;12.80;99.90;;;;;;5053072;28;20212;-76
2023/05/12 00:11:02;;;;;;;14.13;7.47;;;12.80;99.90;;;;;;5053034;28;20209;-76
2023/05/12 00:13:29;;;;;;;15.47;7.20;;;12.70;99.90;;;;;;5052600;28;20201;-76
2023/05/12 00:15:57;;;;;;;11.57;6.13;;;12.80;99.90;;;;;;5052578;28;20225;-76
2023/05/12 00:18:25;;;;;;;12.37;6.13;;;12.70;99.90;;;;;;5053129;28;20205;-76
2023/05/12 00:20:53;;;;;;;10.60;5.20;;;12.60;99.90;;;;;;5034639;28;20606;-76
2023/05/12 00:23:21;;;;;;;10.23;5.53;;;12.60;99.90;;;;;;5052753;28;20199;-76
2023/05/12 00:25:48;;;;;;;8.73;4.83;;;12.50;99.90;;;;;;5052840;28;20320;-76
2023/05/12 00:28:16;;;;;;;9.33;4.50;;;12.40;99.90;;;;;;5052625;28;20284;-76
2023/05/12 00:30:43;;;;;;;8.07;4.47;;;12.40;99.90;;;;;;5049207;28;20300;-76
2023/05/12 00:33:10;;;;;;;9.30;4.93;;;12.40;99.90;;;;;;5052415;28;20288;-75
2023/05/12 00:35:37;;;;;;;8.53;4.10;;;12.40;99.90;;;;;;5052174;28;20300;-76
2023/05/12 00:38:03;;;;;;;8.00;4.03;;;12.40;99.90;;;;;;5052092;28;20264;-76
2023/05/12 00:40:30;;;;;;;9.43;4.80;;;12.40;99.90;;;;;;5036623;28;20289;-76
2023/05/12 00:42:57;;;;;;;8.70;4.73;;;12.40;99.90;;;;;;5052386;28;20189;-76
2023/05/12 00:45:24;;;;;;;9.87;4.40;;;12.30;99.90;;;;;;5051538;28;20294;-76
2023/05/12 00:47:52;;;;;;;9.00;5.10;;;12.30;99.90;;;;;;5052796;28;20288;-76
2023/05/12 00:50:20;;;;;;;9.63;4.50;;;12.40;99.90;;;;;;5047674;28;20673;-76
2023/05/12 00:52:47;;;;;;;9.00;4.50;;;12.40;99.90;;;;;;5051925;28;20198;-76
2023/05/12 00:55:14;;;;;;;8.63;4.40;;;12.40;99.90;;;;;;5050172;28;20197;-76
2023/05/12 00:57:42;;;;;;;7.07;3.90;;;12.40;99.90;;;;;;5052060;28;20657;-77
2023/05/12 01:00:09;;;;;;;8.67;4.13;;;12.40;99.90;;;;;;5052116;28;20303;-77
2023/05/12 01:02:36;;;;;;;7.00;3.93;;;12.30;99.90;;;;;;5052001;28;20205;-75
2023/05/12 01:05:03;;;;;;;9.73;3.93;;;12.30;99.90;;;;;;5051106;28;20224;-77
2023/05/12 01:07:32;;;;;;;7.73;3.97;;;12.30;99.90;;;;;;5032580;28;20281;-76
2023/05/12 01:09:58;;;;;;;10.13;3.80;;;12.30;99.90;;;;;;5033570;28;21066;-77
2023/05/12 01:12:26;;;;;;;8.43;4.00;;;12.30;99.90;;;;;;5051725;28;20284;-75
2023/05/12 01:14:55;;;;;;;11.03;4.83;;;12.30;99.90;;;;;;5051406;28;20700;-76
2023/05/12 01:17:33;;;;;;;9.37;4.77;;;12.30;99.90;;;;;;5052393;28;20232;-75
2023/05/12 01:20:03;;;;;;;11.07;4.87;;;12.30;99.90;;;;;;5050300;28;20353;-76
2023/05/12 01:22:32;;;;;;;10.43;4.60;;;12.30;99.90;;;;;;5051782;28;20665;-75
2023/05/12 01:25:07;;;;;;;10.73;5.00;;;12.30;99.90;;;;;;5047207;28;20244;-76
2023/05/12 01:27:34;;;;;;;12.37;5.60;;;12.30;99.90;;;;;;5048725;28;20311;-76
2023/05/12 01:30:03;;;;;;;11.00;5.27;;;12.30;99.90;;;;;;5056388;28;20217;-76
2023/05/12 01:32:30;;;;;;;14.23;6.20;;;12.30;99.90;;;;;;5054933;28;20631;-76
2023/05/12 01:34:57;;;;;;;12.47;6.13;;;12.30;99.90;;;;;;5052211;28;20247;-76
2023/05/12 01:37:27;;;;;;;14.10;5.57;;;12.30;99.90;;;;;;5051430;28;20205;-76
2023/05/12 01:39:54;;;;;;;16.03;6.47;;;12.30;99.90;;;;;;5051303;28;20292;-77
2023/05/12 01:42:21;;;;;;;15.90;6.93;;;12.30;99.90;;;;;;5051634;28;20205;-77
2023/05/12 01:44:48;;;;;;;16.23;6.30;;;12.40;99.90;;;;;;5033359;28;20268;-77
2023/05/12 01:47:15;;;;;;;17.37;6.47;;;12.20;99.90;;;;;;5026732;28;20202;-77
2023/05/12 01:49:41;;;;;;;14.30;6.37;;;12.20;99.90;;;;;;5050856;28;20267;-77
2023/05/12 01:52:08;;;;;;;14.63;6.23;;;12.30;99.90;;;;;;5047598;28;20708;-77
2023/05/12 01:54:35;;;;;;;16.63;6.90;;;12.30;99.90;;;;;;5049959;28;20201;-77
2023/05/12 01:57:02;;;;;;;14.70;6.97;;;12.30;99.90;;;;;;5047643;28;20288;-77
2023/05/12 01:59:29;;;;;;;15.70;6.37;;;12.30;99.90;;;;;;5028795;28;20734;-76
2023/05/12 02:01:56;;;;;;;20.57;7.63;;;12.30;99.90;;;;;;5047388;28;20209;-77
2023/05/12 02:04:24;;;;;;;20.20;8.07;;;12.30;99.90;;;;;;5050468;28;20697;-77
2023/05/12 02:06:50;;;;;;;18.53;8.03;;;12.30;99.90;;;;;;5051106;28;20740;-77
2023/05/12 02:09:17;;;;;;;19.90;7.67;;;12.30;99.90;;;;;;5050780;28;20665;-76
2023/05/12 02:11:44;;;;;;;18.87;7.80;;;12.40;99.90;;;;;;5051057;28;20220;-76
2023/05/12 02:14:11;;;;;;;20.87;9.20;;;12.40;99.90;;;;;;5050642;28;20308;-76
2023/05/12 02:16:37;;;;;;;22.63;8.37;;;12.40;99.90;;;;;;5051234;28;20559;-76
2023/05/12 02:19:05;;;;;;;23.30;9.60;;;12.40;99.90;;;;;;5050987;28;20202;-76
2023/05/12 02:21:32;;;;;;;25.17;9.23;;;12.30;99.90;;;;;;5051197;28;20205;-76
2023/05/12 02:23:59;;;;;;;28.87;9.87;;;12.40;99.90;;;;;;5050519;28;20716;-77
2023/05/12 02:26:25;;;;;;;27.37;9.70;;;12.40;99.90;;;;;;5050166;28;20518;-77
2023/05/12 02:28:52;;;;;;;21.70;9.30;;;12.30;99.90;;;;;;5051001;28;20640;-77
2023/05/12 02:31:19;;;;;;;30.47;10.27;;;12.30;99.90;;;;;;5050771;28;20205;-77
2023/05/12 02:33:46;;;;;;;26.87;9.03;;;12.30;99.90;;;;;;5047950;28;20202;-77
2023/05/12 02:36:12;;;;;;;29.17;10.50;;;12.30;99.90;;;;;;5050664;28;20609;-77
2023/05/12 02:38:40;;;;;;;32.20;10.27;;;12.40;99.90;;;;;;5048433;28;20296;-77
2023/05/12 02:41:07;;;;;;;29.90;10.93;;;12.30;99.90;;;;;;5049854;28;20237;-78
2023/05/12 02:43:33;;;;;;;33.87;11.73;;;12.30;99.90;;;;;;5050037;28;20557;-76
2023/05/12 02:46:07;;;;;;;28.63;11.33;;;12.30;99.90;;;;;;5049887;28;20273;-78
2023/05/12 02:48:37;;;;;;;32.63;11.10;;;12.30;99.90;;;;;;5046802;28;20284;-76
2023/05/12 02:51:04;;;;;;;27.97;10.93;;;12.40;99.90;;;;;;5049611;28;20193;-78
2023/05/12 02:53:30;;;;;;;32.40;11.97;;;12.30;99.90;;;;;;5050077;28;20284;-77
2023/05/12 02:55:57;;;;;;;31.97;11.63;;;12.30;99.90;;;;;;5046166;28;20292;-77
2023/05/12 02:58:24;;;;;;;33.03;12.17;;;12.40;99.90;;;;;;5050371;28;20301;-77
2023/05/12 03:00:51;;;;;;;37.83;13.03;;;12.40;99.90;;;;;;5050196;28;20307;-77
2023/05/12 03:03:35;;;;;;;33.90;12.07;;;12.40;99.90;;;;;;5047326;28;20213;-77
2023/05/12 03:06:03;;;;;;;34.43;13.50;;;12.40;99.90;;;;;;5049440;28;20236;-76
2023/05/12 03:08:31;;;;;;;41.03;13.23;;;12.40;99.90;;;;;;5032061;28;20208;-77
2023/05/12 03:10:58;;;;;;;41.43;14.43;;;12.40;99.90;;;;;;5049681;28;20223;-77
2023/05/12 03:13:25;;;;;;;46.80;13.50;;;12.40;99.90;;;;;;5049793;28;20308;-77
2023/05/12 03:15:52;;;;;;;45.03;14.87;;;12.50;99.90;;;;;;5036334;28;20248;-77
2023/05/12 03:18:25;;;;;;;47.40;14.93;;;12.50;99.90;;;;;;5054929;28;20763;-77
2023/05/12 03:20:52;;;;;;;44.47;15.47;;;12.50;99.90;;;;;;5055566;28;20208;-77
2023/05/12 03:23:19;;;;;;;51.10;15.40;;;12.50;99.90;;;;;;5049461;28;20673;-77
2023/05/12 03:25:45;;;;;;;46.20;14.90;;;12.50;99.90;;;;;;5049010;28;20323;-77
2023/05/12 03:28:12;;;;;;;50.63;16.60;;;12.50;99.90;;;;;;5049802;28;20255;-77
2023/05/12 03:30:39;;;;;;;60.77;17.00;;;12.60;99.90;;;;;;5032098;28;20227;-76
2023/05/12 03:33:06;;;;;;;52.83;17.17;;;12.60;99.90;;;;;;5049303;28;20727;-76
2023/05/12 03:35:32;;;;;;;55.27;16.97;;;12.60;99.90;;;;;;5048173;28;20229;-76
2023/05/12 03:37:59;;;;;;;62.57;18.97;;;12.60;99.90;;;;;;5048576;28;20232;-76
2023/05/12 03:40:26;;;;;;;66.93;19.37;;;12.60;99.90;;;;;;5047972;28;20215;-74
2023/05/12 03:42:53;;;;;;;58.37;18.50;;;12.60;99.90;;;;;;5048025;28;20302;-75
2023/05/12 03:45:20;;;;;;;64.03;17.93;;;12.60;99.90;;;;;;5048890;28;20231;-76
2023/05/12 03:47:46;;;;;;;62.53;19.50;;;12.60;99.90;;;;;;5049303;28;20200;-76
2023/05/12 03:50:13;;;;;;;71.10;19.50;;;12.60;99.90;;;;;;5049286;28;20209;-78
2023/05/12 03:52:40;;;;;;;69.67;20.27;;;12.70;99.90;;;;;;5049217;28;20240;-76
2023/05/12 03:55:07;;;;;;;73.27;20.00;;;12.70;99.90;;;;;;5031170;28;20216;-75
2023/05/12 03:57:36;;;;;;;71.23;19.83;;;12.70;99.90;;;;;;5049333;28;20209;-76
2023/05/12 04:00:04;;;;;;;73.40;21.47;;;12.70;99.90;;;;;;5047451;28;20269;-76
2023/05/12 04:02:31;;;;;;;82.70;21.70;;;12.80;99.90;;;;;;5049243;28;20315;-75
2023/05/12 04:04:58;;;;;;;76.10;21.17;;;12.80;99.90;;;;;;5047260;28;20308;-76
2023/05/12 04:07:25;;;;;;;82.73;22.93;;;12.70;99.90;;;;;;5048995;28;20225;-75
2023/05/12 04:09:51;;;;;;;73.10;20.77;;;12.80;99.90;;;;;;5031911;28;20275;-75
2023/05/12 04:12:18;;;;;;;76.20;22.40;;;12.80;99.90;;;;;;5045299;28;20213;-76
2023/05/12 04:14:45;;;;;;;73.53;22.10;;;12.80;99.90;;;;;;5048537;28;20659;-76
2023/05/12 04:17:12;;;;;;;75.57;22.27;;;12.80;99.90;;;;;;5049180;28;20322;-76
2023/05/12 04:19:39;;;;;;;79.83;23.23;;;12.90;99.90;;;;;;5044919;28;20267;-76
2023/05/12 04:22:05;;;;;;;71.17;20.97;;;12.90;99.90;;;;;;5049304;28;20194;-76
2023/05/12 04:24:32;;;;;;;88.30;24.37;;;12.90;99.90;;;;;;5047405;28;20284;-76
2023/05/12 04:26:59;;;;;;;71.10;21.73;;;12.90;99.90;;;;;;5048493;28;20288;-75
2023/05/12 04:29:26;;;;;;;78.13;23.30;;;13.00;99.90;;;;;;5048423;28;20224;-76
2023/05/12 04:31:54;;;;;;;84.17;22.17;;;13.00;99.90;;;;;;5031536;28;20748;-76
2023/05/12 04:34:21;;;;;;;84.53;22.60;;;13.00;99.90;;;;;;5048750;28;20281;-77
2023/05/12 04:36:47;;;;;;;86.00;23.53;;;13.00;99.90;;;;;;5047458;28;20233;-77
2023/05/12 04:39:14;;;;;;;82.43;24.57;;;13.10;99.90;;;;;;5048851;28;20281;-77
2023/05/12 04:41:41;;;;;;;75.03;22.03;;;13.10;99.90;;;;;;5047507;28;20969;-77
2023/05/12 04:44:08;;;;;;;78.53;23.77;;;13.10;99.90;;;;;;5045468;28;20214;-77
2023/05/12 04:46:34;;;;;;;68.70;22.67;;;13.10;99.90;;;;;;5050183;28;20316;-77
2023/05/12 04:49:02;;;;;;;76.00;23.23;;;13.20;99.90;;;;;;5048003;28;20544;-77
2023/05/12 04:51:28;;;;;;;72.93;23.33;;;13.20;99.90;;;;;;5053405;28;20202;-76
2023/05/12 04:53:55;;;;;;;84.60;25.63;;;13.20;99.90;;;;;;5051823;28;20212;-75
2023/05/12 04:56:22;;;;;;;79.90;24.10;;;13.20;99.90;;;;;;5049534;28;20209;-76
2023/05/12 04:58:49;;;;;;;70.90;22.73;;;13.30;99.90;;;;;;5052469;28;20625;-75
2023/05/12 05:01:16;;;;;;;76.30;24.30;;;13.30;99.90;;;;;;5051992;28;20226;-75
2023/05/12 05:03:43;;;;;;;69.73;24.30;;;13.40;99.90;;;;;;5035581;28;20307;-75
2023/05/12 05:06:10;;;;;;;76.80;24.23;;;13.30;99.90;;;;;;5049442;28;20271;-77
2023/05/12 05:08:36;;;;;;;76.17;25.70;;;13.40;99.90;;;;;;5051670;28;20205;-76
2023/05/12 05:11:03;;;;;;;71.57;22.77;;;13.40;99.90;;;;;;5049508;28;20253;-76
2023/05/12 05:13:30;;;;;;;76.60;23.87;;;13.40;99.90;;;;;;5049634;28;20552;-76
2023/05/12 05:15:56;;;;;;;70.93;24.40;;;13.50;99.90;;;;;;5048198;28;20217;-76
2023/05/12 05:18:23;;;;;;;72.07;23.77;;;13.50;99.90;;;;;;5049609;28;20202;-75
2023/05/12 05:20:50;;;;;;;64.53;24.90;;;13.50;99.90;;;;;;5051164;28;20217;-76
2023/05/12 05:23:24;;;;;;;75.73;24.87;;;13.50;99.90;;;;;;5035845;28;20330;-76
2023/05/12 05:25:52;;;;;;;66.57;23.80;;;13.60;99.90;;;;;;5051385;28;20299;-76
2023/05/12 05:28:18;;;;;;;74.77;24.63;;;13.60;99.90;;;;;;5039233;28;20331;-76
2023/05/12 05:30:45;;;;;;;66.30;23.57;;;13.60;99.90;;;;;;5034854;28;20764;-75
2023/05/12 05:33:12;;;;;;;71.30;24.63;;;13.60;99.90;;;;;;5047135;28;20251;-76
2023/05/12 05:35:40;;;;;;;70.90;24.13;;;13.70;99.90;;;;;;5047677;28;20209;-76
2023/05/12 05:38:07;;;;;;;62.67;23.83;;;13.70;99.90;;;;;;5051529;28;20216;-75
2023/05/12 05:40:34;;;;;;;60.73;21.83;;;13.70;99.90;;;;;;5051474;28;20209;-74
2023/05/12 05:43:18;;;;;;;69.10;24.97;;;13.80;99.90;;;;;;5051658;28;20205;-77
2023/05/12 05:45:44;;;;;;;59.70;22.93;;;13.80;99.90;;;;;;5051107;28;20570;-76
2023/05/12 05:48:11;;;;;;;64.67;22.27;;;13.80;99.90;;;;;;5047420;28;20209;-76
2023/05/12 05:50:38;;;;;;;63.77;22.77;;;13.90;99.90;;;;;;5051289;28;20284;-77
2023/05/12 05:53:05;;;;;;;61.13;23.97;;;13.90;99.90;;;;;;5051553;28;20212;-77
2023/05/12 05:55:32;;;;;;;57.73;22.57;;;14.00;99.90;;;;;;5049482;28;20292;-78
2023/05/12 05:57:59;;;;;;;57.70;22.47;;;14.00;99.90;;;;;;5049515;28;20209;-77
2023/05/12 06:00:26;;;;;;;57.77;22.57;;;14.00;99.90;;;;;;5050443;28;20275;-76
2023/05/12 06:02:52;;;;;;;59.90;23.10;;;14.10;99.90;;;;;;5032143;28;20251;-77
2023/05/12 06:05:19;;;;;;;56.47;23.47;;;14.10;99.90;;;;;;5050225;28;20225;-77
2023/05/12 06:07:47;;;;;;;55.73;22.73;;;14.10;99.90;;;;;;5050727;28;20236;-73
2023/05/12 06:10:14;;;;;;;56.77;21.53;;;14.20;99.90;;;;;;5049918;28;20205;-77
2023/05/12 06:12:42;;;;;;;54.67;21.63;;;14.30;99.90;;;;;;5050789;28;20736;-80
2023/05/12 06:15:09;;;;;;;57.87;23.37;;;14.80;99.90;;;;;;5042946;28;20225;-79
2023/05/12 06:17:37;;;;;;;48.70;22.40;;;14.50;99.90;;;;;;5046848;28;20232;-79
2023/05/12 06:20:05;;;;;;;49.17;20.93;;;15.40;99.90;;;;;;5045379;28;20606;-81
2023/05/12 06:22:33;;;;;;;52.73;21.80;;;14.60;99.90;;;;;;5049709;28;20316;-80
2023/05/12 06:25:00;;;;;;;47.90;21.07;;;15.70;99.90;;;;;;5046386;28;20312;-79
2023/05/12 06:27:27;;;;;;;50.43;21.50;;;14.00;99.90;;;;;;5048375;28;20323;-78
2023/05/12 06:29:54;;;;;;;47.30;21.17;;;14.40;99.90;;;;;;5046226;28;20982;-79
2023/05/12 06:32:21;;;;;;;45.37;19.47;;;15.50;99.90;;;;;;5050464;28;20236;-79
2023/05/12 06:34:47;;;;;;;47.45;20.83;;;15.00;99.90;;;;;;5047822;28;20205;-81
2023/05/12 06:37:15;;;;;;;44.67;19.50;;;15.00;99.90;;;;;;5050310;28;20248;-81
2023/05/12 06:39:41;;;;;;;46.53;20.52;;;15.10;99.90;;;;;;5049276;28;20296;-81
2023/05/12 06:42:10;;;;;;;43.80;21.42;;;15.40;99.90;;;;;;5050618;28;20205;-79
2023/05/12 06:44:37;;;;;;;43.03;20.90;;;15.50;99.90;;;;;;5049844;28;20209;-79
2023/05/12 06:47:06;;;;;;;43.38;19.95;;;15.20;99.90;;;;;;5048799;28;20243;-79
2023/05/12 06:49:35;;;;;;;40.78;19.60;;;15.50;99.90;;;;;;5047803;28;20351;-79
2023/05/12 06:52:04;;;;;;;42.17;18.95;;;15.80;99.90;;;;;;5048745;28;20315;-80
2023/05/12 06:54:31;;;;;;;37.40;20.02;;;15.70;99.90;;;;;;5032221;28;20215;-78
2023/05/12 06:56:58;;;;;;;36.45;18.45;;;15.80;99.90;;;;;;5026453;28;21136;-80
2023/05/12 06:59:24;;;;;;;36.88;19.48;;;15.80;99.90;;;;;;5047572;28;20306;-79
2023/05/12 07:01:51;;;;;;;38.35;18.52;;;15.90;99.90;;;;;;5049137;28;20215;-80
2023/05/12 07:04:18;;;;;;;38.08;17.85;;;16.10;99.90;;;;;;5049250;28;20224;-79
2023/05/12 07:06:45;;;;;;;37.00;19.65;;;16.20;99.90;;;;;;5048675;28;20260;-79
2023/05/12 07:09:12;;;;;;;38.45;19.45;;;16.40;99.90;;;;;;5048380;28;20247;-79
2023/05/12 07:11:39;;;;;;;35.00;18.65;;;16.50;99.90;;;;;;5049602;28;20209;-81
2023/05/12 07:14:06;;;;;;;32.47;18.00;;;16.60;99.90;;;;;;5048701;28;20235;-79
2023/05/12 07:16:33;;;;;;;33.38;17.80;;;16.70;99.90;;;;;;5048500;28;20214;-79
2023/05/12 07:18:59;;;;;;;34.15;16.88;;;16.80;99.90;;;;;;5049831;28;20255;-79
2023/05/12 07:21:28;;;;;;;33.55;17.92;;;17.00;99.90;;;;;;5049777;28;20647;-81
2023/05/12 07:23:55;;;;;;;33.42;17.52;;;17.20;99.90;;;;;;5050293;28;20292;-81
2023/05/12 07:26:23;;;;;;;30.02;17.42;;;17.30;99.90;;;;;;5030756;28;20256;-79
2023/05/12 07:28:49;;;;;;;29.05;15.60;;;17.40;99.90;;;;;;5048690;28;20216;-80
2023/05/12 07:31:16;;;;;;;27.15;16.75;;;17.40;99.90;;;;;;5035163;28;20960;-79
2023/05/12 07:33:43;;;;;;;30.00;16.08;;;17.40;99.90;;;;;;5044376;28;20217;-79
2023/05/12 07:36:10;;;;;;;25.67;15.30;;;17.50;99.90;;;;;;5045169;28;20215;-80
2023/05/12 07:38:36;;;;;;;28.60;15.45;;;17.70;99.90;;;;;;5046176;28;20626;-81
2023/05/12 07:41:03;;;;;;;26.88;15.82;;;17.80;99.90;;;;;;5049337;28;20240;-82
2023/05/12 07:43:30;;;;;;;24.50;15.05;;;18.00;99.90;;;;;;5040526;28;20202;-81
2023/05/12 07:45:59;;;;;;;23.95;14.25;;;18.20;99.90;;;;;;5049052;28;20670;-80
2023/05/12 07:48:26;;;;;;;25.98;14.70;;;18.40;99.90;;;;;;5049687;28;20259;-81
2023/05/12 07:50:53;;;;;;;22.40;13.43;;;18.70;99.90;;;;;;5049549;28;20205;-81
2023/05/12 07:53:20;;;;;;;20.70;12.38;;;18.90;99.90;;;;;;5049760;28;20205;-81
2023/05/12 07:55:46;;;;;;;20.05;11.93;;;19.10;99.90;;;;;;5031851;28;20216;-80
2023/05/12 07:58:13;;;;;;;22.98;12.82;;;19.30;99.90;;;;;;5049455;28;20197;-80
2023/05/12 08:00:40;;;;;;;19.05;12.25;;;19.30;99.90;;;;;;5049127;28;20312;-81
2023/05/12 08:03:06;;;;;;;19.80;11.63;;;19.30;99.90;;;;;;5045365;28;20217;-80
2023/05/12 08:05:33;;;;;;;19.85;11.75;;;19.30;99.90;;;;;;5049212;28;20284;-80
2023/05/12 08:08:00;;;;;;;21.10;12.25;;;19.30;99.90;;;;;;5049033;28;20212;-79
2023/05/12 08:10:28;;;;;;;18.85;11.77;;;19.40;99.90;;;;;;5047709;28;20291;-80
2023/05/12 08:12:55;;;;;;;19.75;11.45;;;19.50;99.90;;;;;;5049436;28;20212;-79
2023/05/12 08:15:22;;;;;;;21.27;12.10;;;19.60;99.90;;;;;;5049316;28;20217;-80
2023/05/12 08:17:49;;;;;;;15.18;10.07;;;19.60;99.90;;;;;;5031171;28;20648;-80
2023/05/12 08:20:16;;;;;;;17.67;11.35;;;19.60;99.90;;;;;;5051296;28;20205;-80
2023/05/12 08:22:43;;;;;;;16.23;10.60;;;19.40;99.90;;;;;;5052925;28;20295;-80
2023/05/12 08:25:10;;;;;;;18.45;11.02;;;19.40;99.90;;;;;;5052326;28;20571;-79
2023/05/12 08:27:38;;;;;;;17.05;10.50;;;19.50;99.90;;;;;;5051319;28;20260;-77
2023/05/12 08:30:05;;;;;;;13.80;9.43;;;19.70;99.90;;;;;;5052278;28;20266;-79
2023/05/12 08:32:32;;;;;;;20.98;10.90;;;20.00;99.90;;;;;;5043219;28;20236;-80
2023/05/12 08:34:59;;;;;;;15.45;9.85;;;20.30;99.90;;;;;;5031747;28;20240;-80
2023/05/12 08:37:26;;;;;;;13.07;9.43;;;20.80;99.90;;;;;;5048753;28;20216;-78
2023/05/12 08:39:54;;;;;;;14.82;9.68;;;21.10;99.90;;;;;;5052365;28;20296;-79
2023/05/12 08:42:20;;;;;;;14.50;9.65;;;21.20;99.90;;;;;;5052883;28;20215;-80
2023/05/12 08:44:48;;;;;;;14.43;9.07;;;21.10;99.90;;;;;;5048590;28;20308;-79
2023/05/12 08:47:18;;;;;;;13.35;8.73;;;20.90;99.90;;;;;;5052555;28;20323;-79
2023/05/12 08:49:52;;;;;;;13.70;9.82;;;20.80;99.90;;;;;;5033408;28;20287;-79
2023/05/12 08:52:21;;;;;;;14.20;9.27;;;20.80;99.90;;;;;;5045610;28;20214;-79
2023/05/12 08:54:49;;;;;;;14.02;8.95;;;20.80;99.90;;;;;;5049504;28;20232;-80
2023/05/12 08:57:23;;;;;;;14.27;9.25;;;20.50;99.90;;;;;;5052961;28;20204;-79
2023/05/12 08:59:53;;;;;;;13.52;9.27;;;20.50;99.90;;;;;;5052061;28;20291;-80
2023/05/12 09:02:21;;;;;;;15.98;10.25;;;20.50;99.90;;;;;;5052481;28;20239;-80
2023/05/12 09:04:50;;;;;;;12.63;8.88;;;20.60;99.90;;;;;;5030810;28;20237;-79
2023/05/12 09:07:23;;;;;;;14.23;8.70;;;20.70;99.90;;;;;;5050849;28;20247;-79
2023/05/12 09:09:55;;;;;;;12.30;8.80;;;20.80;99.90;;;;;;5052047;28;20305;-79
2023/05/12 09:12:25;;;;;;;11.15;7.97;;;20.90;99.90;;;;;;5051923;28;20205;-78
2023/05/12 09:15:18;;;;;;;12.95;8.32;;;20.80;99.90;;;;;;5051760;28;20218;-80
2023/05/12 09:17:45;;;;;;;11.27;7.90;;;20.80;99.90;;;;;;5051666;28;20217;-79
2023/05/12 09:20:12;;;;;;;11.20;7.88;;;20.70;99.90;;;;;;5030334;28;20355;-80
2023/05/12 09:22:57;;;;;;;15.75;7.75;;;20.80;99.90;;;;;;5047020;28;20216;-80
2023/05/12 09:25:23;;;;;;;13.73;8.13;;;20.80;99.90;;;;;;5051747;28;20240;-80
2023/05/12 09:27:55;;;;;;;10.20;7.45;;;20.70;99.90;;;;;;5050400;28;20235;-80
2023/05/12 09:30:34;;;;;;;10.65;8.18;;;20.70;99.90;;;;;;5047545;28;20262;-79
2023/05/12 09:33:06;;;;;;;11.57;8.30;;;20.80;99.90;;;;;;5051662;28;20308;-80
2023/05/12 09:35:37;;;;;;;9.15;7.22;;;21.00;99.90;;;;;;5050490;28;20282;-80
2023/05/12 09:38:13;;;;;;;10.60;7.65;;;21.10;99.90;;;;;;5048002;28;20240;-79
2023/05/12 09:40:41;;;;;;;10.88;7.50;;;21.30;99.90;;;;;;5049013;28;20213;-79
2023/05/12 09:43:09;;;;;;;9.60;6.80;;;21.50;99.90;;;;;;5050424;28;20315;-80
2023/05/12 09:45:38;;;;;;;10.32;7.40;;;21.80;99.90;;;;;;5050507;28;20221;-81
2023/05/12 09:48:10;;;;;;;8.98;6.35;;;22.00;99.90;;;;;;5048200;28;20224;-80
2023/05/12 09:50:49;;;;;;;8.23;6.25;;;22.20;99.90;;;;;;5034052;28;20205;-80
2023/05/12 09:53:17;;;;;;;8.68;5.95;;;22.30;99.90;;;;;;5049471;28;20208;-80
2023/05/12 09:55:46;;;;;;;7.63;5.65;;;22.40;99.90;;;;;;5049353;28;20228;-81
2023/05/12 09:58:15;;;;;;;6.57;5.00;;;22.20;99.90;;;;;;5031976;28;20541;-81
2023/05/12 10:00:42;;;;;;;6.65;5.05;;;22.00;99.90;;;;;;5047935;28;20299;-80
2023/05/12 10:03:31;;;;;;;8.23;5.60;;;22.40;99.90;;;;;;5046875;28;20205;-81
2023/05/12 10:06:02;;;;;;;7.93;6.20;;;22.20;99.90;;;;;;5052310;28;20575;-82
2023/05/12 10:08:46;;;;;;;8.38;5.85;;;22.20;99.90;;;;;;5049398;28;20661;-79
2023/05/12 10:11:13;;;;;;;7.78;5.90;;;22.10;99.90;;;;;;5033444;28;20217;-80
2023/05/12 10:13:40;;;;;;;6.70;4.97;;;22.30;99.90;;;;;;5051174;28;20197;-81
2023/05/12 10:16:08;;;;;;;7.65;5.75;;;22.60;99.90;;;;;;5042906;28;20331;-81
2023/05/12 10:18:35;;;;;;;6.93;5.45;;;22.70;99.90;;;;;;5049667;28;20241;-80
2023/05/12 10:21:03;;;;;;;8.68;5.47;;;22.70;99.90;;;;;;5047333;28;20204;-80
2023/05/12 10:23:30;;;;;;;7.43;5.53;;;22.80;99.90;;;;;;5049647;28;20248;-81
2023/05/12 10:26:01;;;;;;;6.95;5.40;;;22.80;99.90;;;;;;5051243;28;20262;-82
2023/05/12 10:28:28;;;;;;;7.60;5.60;;;23.00;99.90;;;;;;5049760;28;20201;-81
2023/05/12 10:30:56;;;;;;;6.60;5.43;;;23.30;99.90;;;;;;5032238;28;20592;-81
2023/05/12 10:33:24;;;;;;;7.28;5.32;;;23.50;99.90;;;;;;5048971;28;20212;-81
2023/05/12 10:35:51;;;;;;;6.53;4.90;;;23.50;99.90;;;;;;5028458;28;20252;-81
2023/05/12 10:38:19;;;;;;;11.88;5.30;;;23.40;99.90;;;;;;5044235;28;20289;-82
2023/05/12 10:40:53;;;;;;;7.03;5.00;;;23.30;99.90;;;;;;5048431;28;20236;-82
2023/05/12 10:43:37;;;;;;;19.08;7.18;;;23.30;99.90;;;;;;5048989;28;20279;-81
2023/05/12 10:46:08;;;;;;;14.30;7.15;;;23.10;99.90;;;;;;5046019;28;20216;-81
2023/05/12 10:48:37;;;;;;;9.82;5.57;;;22.70;99.90;;;;;;5026874;28;20201;-81
2023/05/12 10:51:08;;;;;;;5.93;4.20;;;22.60;99.90;;;;;;5045788;28;20194;-82
2023/05/12 10:53:38;;;;;;;5.18;4.22;;;22.30;99.90;;;;;;5050477;28;20288;-82
2023/05/12 10:56:24;;;;;;;5.97;4.90;;;22.20;99.90;;;;;;5047659;28;20204;-80
2023/05/12 10:59:13;;;;;;;8.48;5.22;;;22.10;99.90;;;;;;5045998;28;20255;-83
2023/05/12 11:01:56;;;;;;;5.88;4.35;;;22.10;99.90;;;;;;5051019;28;20205;-80
2023/05/12 11:04:40;;;;;;;6.93;5.35;;;22.20;99.90;;;;;;5046568;28;20236;-81
2023/05/12 11:07:09;;;;;;;5.55;4.53;;;22.50;99.90;;;;;;5026661;28;20685;-80
2023/05/12 11:09:43;;;;;;;6.15;4.78;;;22.60;99.90;;;;;;5046051;28;20212;-81
2023/05/12 11:12:30;;;;;;;5.22;4.10;;;22.70;99.90;;;;;;5048733;28;20307;-82
2023/05/12 11:15:02;;;;;;;5.70;4.32;;;22.70;99.90;;;;;;5051690;28;20212;-81
2023/05/12 11:17:29;;;;;;;10.05;4.80;;;22.80;99.90;;;;;;5050074;28;20656;-81
2023/05/12 11:19:56;;;;;;;5.57;4.15;;;22.80;99.90;;;;;;5049113;28;20213;-81
2023/05/12 11:22:23;;;;;;;6.22;4.05;;;22.80;99.90;;;;;;5051411;28;20205;-80
2023/05/12 11:24:51;;;;;;;5.25;4.45;;;22.80;99.90;;;;;;5055044;28;20240;-81
2023/05/12 11:27:20;;;;;;;5.07;4.22;;;22.90;99.90;;;;;;5054498;28;20290;-82
2023/05/12 11:29:58;;;;;;;4.32;3.92;;;22.90;99.90;;;;;;5053710;28;20221;-81
2023/05/12 11:32:25;;;;;;;6.10;4.80;;;22.90;99.90;;;;;;5053527;28;20247;-81
2023/05/12 11:34:52;;;;;;;5.78;5.15;;;22.80;99.90;;;;;;5048282;28;20201;-82
2023/05/12 11:37:19;;;;;;;6.07;4.60;;;22.70;99.90;;;;;;5050045;28;20201;-82
2023/05/12 11:39:47;;;;;;;6.32;4.55;;;22.60;99.90;;;;;;5047929;28;20632;-81
2023/05/12 11:42:14;;;;;;;6.97;5.13;;;22.60;99.90;;;;;;5047226;28;20259;-82
2023/05/12 11:44:48;;;;;;;8.38;6.00;;;22.70;99.90;;;;;;5048004;28;20217;-82
2023/05/12 11:47:16;;;;;;;8.38;5.82;;;22.80;99.90;;;;;;5045770;28;20261;-81
2023/05/12 11:49:53;;;;;;;7.03;5.10;;;23.00;99.90;;;;;;5033223;28;20255;-82
2023/05/12 11:52:22;;;;;;;5.82;4.60;;;22.90;99.90;;;;;;5050222;28;20673;-81
2023/05/12 11:54:56;;;;;;;7.10;5.45;;;23.00;99.90;;;;;;5051489;28;20216;-77
2023/05/12 11:57:34;;;;;;;9.25;7.05;;;23.20;99.90;;;;;;5049927;28;20240;-80
2023/05/12 12:00:04;;;;;;;9.70;6.75;;;23.20;99.90;;;;;;5053689;28;20259;-79
2023/05/12 12:02:32;;;;;;;10.45;7.57;;;23.40;99.90;;;;;;5055860;28;20204;-80
2023/05/12 12:04:59;;;;;;;9.45;7.70;;;23.50;99.90;;;;;;5050865;28;20736;-79
2023/05/12 12:07:34;;;;;;;7.13;5.90;;;23.70;99.90;;;;;;5051463;28;20772;-79
2023/05/12 12:10:15;;;;;;;6.05;4.47;;;23.80;99.90;;;;;;5052446;28;20204;-79
2023/05/12 12:12:42;;;;;;;6.60;4.90;;;24.00;99.90;;;;;;5051745;28;20211;-75
2023/05/12 12:15:10;;;;;;;5.25;4.70;;;24.20;99.90;;;;;;5049542;28;20296;-79
2023/05/12 12:17:38;;;;;;;10.23;5.68;;;24.30;99.90;;;;;;5049341;28;20255;-80
2023/05/12 12:20:06;;;;;;;8.85;6.38;;;24.50;99.90;;;;;;5053426;28;20231;-78
2023/05/12 12:22:34;;;;;;;7.70;5.45;;;24.50;99.90;;;;;;5052372;28;20743;-79
2023/05/12 12:25:02;;;;;;;7.00;5.60;;;24.70;99.90;;;;;;5052562;28;20237;-79
2023/05/12 12:27:29;;;;;;;5.55;4.60;;;24.60;99.90;;;;;;5048940;28;20235;-79
2023/05/12 12:29:55;;;;;;;7.25;6.15;;;24.50;99.90;;;;;;5052068;28;20677;-77
2023/05/12 12:32:22;;;;;;;8.80;5.88;;;24.30;99.90;;;;;;5050816;28;20209;-80
2023/05/12 12:34:49;;;;;;;11.10;6.70;;;24.40;99.90;;;;;;5048588;28;20243;-78
2023/05/12 12:37:16;;;;;;;9.27;6.28;;;24.30;99.90;;;;;;5034570;28;20292;-77
2023/05/12 12:39:43;;;;;;;8.48;6.43;;;24.30;99.90;;;;;;5048785;28;20669;-78
2023/05/12 12:42:09;;;;;;;9.88;6.65;;;24.30;99.90;;;;;;5031115;28;20205;-78